Flight Track Log - Related Links

Times and Time Zones

All times are in EDT time to prevent confusion due to time zone crossing. See the CTL312 flight status page for this flight to view local times or setup timezone preferences in your user account.

Time Position Orientation Groundspeed Altitude Reporting Facility
EDT Latitude Longitude Course Direction KTS MPH feet Rate Location/Type
Wed 06:51:50 PM 41.5378 -81.6789 339° North 121 139 1,200  Level Cleveland Center
Wed 06:52:21 PM 41.5544 -81.6875 339° North 126 145 2,000 1,385 Climbing Cleveland Center
Wed 06:53:21 PM 41.5856 -81.7019 341° North 113 130 3,300 1,140 Climbing Cleveland Center
Wed 06:54:22 PM 41.5900 -81.6742 78° East 138 159 4,300 992 Climbing Cleveland Center
Wed 06:55:22 PM 41.5653 -81.6350 130° Southeast 129 148 5,300 843 Climbing Cleveland Center
Wed 06:56:23 PM 41.5239 -81.6150 160° South 153 176 6,000 362 Climbing Cleveland Center
Wed 06:57:18 PM 41.4864 -81.5950 158° South 178 205 6,000  Level Cleveland Center
Wed 06:58:18 PM 41.4383 -81.5997 184° South 184 212 6,000  Level Cleveland Center
Wed 06:59:19 PM 41.3903 -81.6294 205° Southwest 183 211 6,000  Level Cleveland Center
Wed 07:00:13 PM 41.3483 -81.6536 203° Southwest 183 211 6,000  Level Cleveland Center
Wed 07:01:14 PM 41.3022 -81.6750 199° South 182 209 6,000  Level Cleveland Center
Wed 07:02:15 PM 41.2622 -81.7211 221° Southwest 183 211 6,000  Level Cleveland Center
Wed 07:03:15 PM 41.2261 -81.7731 227° Southwest 185 213 6,000  Level Cleveland Center
Wed 07:04:16 PM 41.1922 -81.8247 229° Southwest 186 214 6,000  Level Cleveland Center
Wed 07:05:16 PM 41.1606 -81.8767 231° Southwest 185 213 6,000  Level Cleveland Center
Wed 07:06:23 PM 41.1222 -81.9336 228° Southwest 184 212 6,000 -7 Level Cleveland Center
Wed 07:08:00 PM 41.0748 -82.0073 229° Southwest  Level FlightAware Approximate
Wed 07:15:00 PM 40.8727 -82.3295 232° Southwest  Level FlightAware Approximate
Wed 07:16:00 PM 40.8446 -82.3763 232° Southwest  Level FlightAware Approximate
Wed 07:17:00 PM 40.8166 -82.4231 232° Southwest  Level FlightAware Approximate
Wed 07:18:00 PM 40.7885 -82.4698 232° Southwest  Level FlightAware Approximate
Wed 07:19:00 PM 40.7604 -82.5165 232° Southwest  Level FlightAware Approximate
Wed 07:20:00 PM 40.7323 -82.5632 232° Southwest  Level FlightAware Approximate
Wed 07:20:29 PM 40.6539 -82.6503 230° Southwest 186 214 5,900  Level Indianapolis Center
Wed 07:21:00 PM 40.7041 -82.6098 231° Southwest  Level FlightAware Approximate
Wed 07:21:31 PM 40.6200 -82.7017 229° Southwest 185 213 5,900  Level Indianapolis Center
Wed 07:22:00 PM 40.6752 -82.6556 230° Southwest  Level FlightAware Approximate
Wed 07:22:33 PM 40.5867 -82.7519 229° Southwest 181 208 5,900  Level Indianapolis Center
Wed 07:23:00 PM 40.6462 -82.7012 230° Southwest  Level FlightAware Approximate
Wed 07:23:35 PM 40.5519 -82.8028 228° Southwest 184 212 5,900  Level Indianapolis Center
Wed 07:24:00 PM 40.6171 -82.7468 230° Southwest  Level FlightAware Approximate
Wed 07:24:36 PM 40.5192 -82.8547 230° Southwest 183 211 5,900  Level Indianapolis Center
Wed 07:25:00 PM 40.5880 -82.7923 230° Southwest  Level FlightAware Approximate
Wed 07:25:38 PM 40.4858 -82.9064 230° Southwest 179 206 5,900  Level Indianapolis Center
Wed 07:26:34 PM 40.4511 -82.9603 230° Southwest 182 209 5,900  Level Indianapolis Center
Wed 07:27:35 PM 40.4144 -83.0147 229° Southwest 183 211 5,900  Level Indianapolis Center
Wed 07:28:35 PM 40.3825 -83.0644 230° Southwest 181 208 5,900  Level Indianapolis Center
Wed 07:29:36 PM 40.3486 -83.1111 226° Southwest 179 206 5,900  Level Indianapolis Center
Wed 07:30:37 PM 40.3147 -83.1578 226° Southwest 178 205 5,900  Level Indianapolis Center
Wed 07:31:38 PM 40.2806 -83.2069 228° Southwest 177 204 5,900  Level Indianapolis Center
Wed 07:32:39 PM 40.2461 -83.2589 229° Southwest 179 206 5,900  Level Indianapolis Center
Wed 07:33:39 PM 40.2142 -83.3058 228° Southwest 177 204 5,900  Level Indianapolis Center
Wed 07:34:55 PM 40.1783 -83.3583 228° Southwest 176 203 5,900  Level Indianapolis Center
Wed 07:35:56 PM 40.1400 -83.4128 227° Southwest 175 201 5,900  Level Indianapolis Center
Wed 07:36:42 PM 40.1161 -83.4483 229° Southwest 172 198 5,900  Level Indianapolis Center
Wed 07:38:00 PM 40.0783 -83.5078 230° Southwest 171 197 5,900  Level Indianapolis Center
Wed 07:38:43 PM 40.0539 -83.5444 229° Southwest 171 197 5,900 58 Level Indianapolis Center
Wed 07:39:44 PM 40.0239 -83.5914 230° Southwest 172 198 6,000 103 Climbing Indianapolis Center
Wed 07:40:39 PM 39.9925 -83.6325 225° Southwest 170 196 6,100  Climbing Indianapolis Center
Wed 07:41:46 PM 39.9536 -83.6833 225° Southwest 174 200 6,000 -47 Descending Indianapolis Center
Wed 07:42:47 PM 39.9192 -83.7319 227° Southwest 176 203 6,000  Level Indianapolis Center
Wed 07:43:54 PM 39.8847 -83.7833 229° Southwest 175 201 6,000 47 Level Indianapolis Center
Wed 07:44:54 PM 39.8503 -83.8319 227° Southwest 172 198 6,100  Climbing Indianapolis Center
Wed 07:45:55 PM 39.8181 -83.8783 228° Southwest 173 199 6,000 -188 Descending Indianapolis Center
Wed 07:47:02 PM 39.7811 -83.9292 227° Southwest 180 207 5,700 -393 Descending Indianapolis Center
Wed 07:47:57 PM 39.7494 -83.9728 227° Southwest 187 215 5,200 -613 Descending Indianapolis Center
Wed 07:49:19 PM 39.7047 -84.0372 228° Southwest 188 216 4,300 -500 Descending Indianapolis Center
Wed 07:50:21 PM 39.6678 -84.0867 226° Southwest 190 219 4,000 -146 Descending Indianapolis Center
Wed 07:51:22 PM 39.6264 -84.1406 225° Southwest 184 212 4,000  Level Indianapolis Center
Wed 07:52:24 PM 39.5928 -84.1869 227° Southwest 179 206 4,000  Level Indianapolis Center
Wed 07:53:26 PM 39.5592 -84.2339 227° Southwest 177 204 4,000 -48 Level Indianapolis Center
Wed 07:54:28 PM 39.5239 -84.2794 225° Southwest 176 203 3,900 -146 Descending Indianapolis Center
Wed 07:55:29 PM 39.4897 -84.3319 230° Southwest 183 211 3,700 -146 Descending Indianapolis Center
Wed 07:56:31 PM 39.4578 -84.3842 232° Southwest 185 213 3,600 -97 Descending Indianapolis Center
Wed 07:58:00 PM 39.4084 -84.4416 218° Southwest  Level FlightAware Approximate
Wed 08:05:00 PM 39.3500 -84.5167 229° Southwest  Level FlightAware Approximate
Wed 08:06:00 PM 39.3638 -84.5219 229° Southwest  Level Estimated
Wed 08:07:00 PM 39.3638 -84.5219 229° Southwest  Level Estimated

Login

Don't have an account? Register now (free) for customized features, flight alerts, and more!